Time;durP1;ratioP1;P1;durP2;ratioP2;P2;SDS_P1;SDS_P2;PMS_P1;PMS_P2;Temp;Humidity;BMP_temperature;BMP_pressure;BME280_temperature;BME280_humidity;BME280_pressure;Samples;Min_cycle;Max_cycle;Signal;HPM_P1;HPM_P2
2023/09/29 01:04:31;;;;;;;17.92;9.57;;;16.50;89.60;;;;;;559550;23;20474;-92
2023/09/29 01:06:57;;;;;;;13.85;10.10;;;16.60;89.60;;;;;;5000632;28;20205;-93
2023/09/29 01:09:22;;;;;;;18.88;9.57;;;16.60;89.70;;;;;;5002131;28;20143;-93
2023/09/29 01:11:49;;;;;;;15.48;9.52;;;16.60;89.60;;;;;;5002079;28;20167;-93
2023/09/29 01:14:14;;;;;;;13.80;9.70;;;16.60;89.60;;;;;;5002048;28;20143;-93
2023/09/29 01:16:40;;;;;;;15.05;8.93;;;16.60;89.50;;;;;;5002063;28;20140;-94
2023/09/29 01:19:13;;;;;;;11.13;9.15;;;16.70;89.50;;;;;;5001943;28;20147;-95
2023/09/29 01:21:45;;;;;;;12.15;10.23;;;16.60;89.40;;;;;;5001907;28;20166;-94
2023/09/29 01:24:11;;;;;;;14.43;10.82;;;16.60;89.30;;;;;;5001869;28;20147;-94
2023/09/29 01:26:37;;;;;;;15.25;9.48;;;16.70;89.40;;;;;;5001859;28;20150;-93
2023/09/29 01:29:03;;;;;;;15.75;9.70;;;16.60;89.40;;;;;;5001769;28;20147;-93
2023/09/29 01:31:31;;;;;;;11.75;9.05;;;16.60;89.30;;;;;;5001687;28;20159;-93
2023/09/29 01:33:57;;;;;;;13.60;9.38;;;16.60;89.30;;;;;;5001623;28;20230;-93
2023/09/29 01:36:24;;;;;;;16.10;9.38;;;16.60;89.30;;;;;;5001679;28;20162;-93
2023/09/29 01:38:49;;;;;;;14.23;8.68;;;16.60;89.40;;;;;;5001620;28;20142;-93
2023/09/29 01:41:15;;;;;;;14.02;9.48;;;16.50;89.40;;;;;;5001580;28;20144;-93
2023/09/29 01:43:41;;;;;;;12.60;10.68;;;16.50;89.40;;;;;;5001451;28;20166;-93
2023/09/29 01:46:09;;;;;;;19.77;10.13;;;16.50;89.50;;;;;;5001488;28;20151;-93
2023/09/29 01:48:35;;;;;;;19.05;10.80;;;16.50;89.60;;;;;;5001421;28;20167;-93
2023/09/29 01:51:03;;;;;;;14.88;9.90;;;16.50;89.80;;;;;;5001430;28;20162;-94
2023/09/29 01:53:30;;;;;;;18.05;10.38;;;16.50;89.80;;;;;;5001322;28;20139;-93
2023/09/29 01:55:56;;;;;;;10.50;9.40;;;16.50;89.80;;;;;;5000492;28;20135;-94
2023/09/29 01:58:27;;;;;;;15.00;9.88;;;16.50;89.80;;;;;;5001280;28;20143;-93
2023/09/29 02:00:54;;;;;;;15.05;10.90;;;16.50;89.80;;;;;;5001243;28;20202;-94
2023/09/29 02:03:20;;;;;;;15.45;10.45;;;16.50;89.90;;;;;;5001185;28;20223;-94
2023/09/29 02:05:45;;;;;;;13.32;10.15;;;16.50;89.90;;;;;;5000975;28;20246;-94
2023/09/29 02:08:11;;;;;;;15.05;12.40;;;16.40;89.90;;;;;;5001082;28;20135;-94
2023/09/29 02:10:37;;;;;;;12.32;10.30;;;16.50;90.10;;;;;;5001035;28;20166;-94
2023/09/29 02:13:07;;;;;;;16.63;11.48;;;16.50;90.00;;;;;;5000911;28;20169;-93
2023/09/29 02:15:34;;;;;;;12.75;9.77;;;16.50;90.00;;;;;;5000996;28;20167;-93
2023/09/29 02:18:06;;;;;;;16.38;11.15;;;16.40;90.10;;;;;;4999697;28;20167;-93
2023/09/29 02:20:32;;;;;;;19.92;11.50;;;16.40;90.10;;;;;;4999702;28;20183;-93
2023/09/29 02:22:59;;;;;;;21.00;12.30;;;16.40;90.10;;;;;;4999575;28;20167;-93
2023/09/29 02:25:25;;;;;;;18.42;12.48;;;16.40;90.30;;;;;;4999553;28;20182;-94
2023/09/29 02:27:55;;;;;;;17.08;11.30;;;16.50;90.30;;;;;;4999562;28;20244;-93
2023/09/29 02:30:21;;;;;;;16.27;11.70;;;16.50;90.30;;;;;;4999548;28;20182;-93
2023/09/29 02:32:47;;;;;;;13.82;11.45;;;16.50;90.30;;;;;;4999451;28;20202;-93
2023/09/29 02:35:13;;;;;;;19.05;11.55;;;16.40;90.40;;;;;;4999365;28;20175;-93
2023/09/29 02:37:39;;;;;;;15.00;10.55;;;16.40;90.40;;;;;;4999390;28;20167;-93
2023/09/29 02:40:13;;;;;;;18.38;11.30;;;16.50;90.50;;;;;;4999401;28;20178;-94
2023/09/29 02:42:39;;;;;;;17.13;11.70;;;16.40;90.40;;;;;;4999486;28;20191;-93
2023/09/29 02:45:08;;;;;;;20.35;11.07;;;16.40;90.50;;;;;;4999250;28;20205;-93
2023/09/29 02:47:35;;;;;;;18.38;10.32;;;16.30;90.50;;;;;;4999280;28;20173;-93
2023/09/29 02:50:01;;;;;;;16.67;10.85;;;16.30;90.60;;;;;;4999332;28;20166;-93
2023/09/29 02:52:27;;;;;;;15.65;11.05;;;16.30;90.60;;;;;;4999147;28;20190;-93
2023/09/29 02:54:55;;;;;;;15.90;11.40;;;16.40;90.70;;;;;;4999086;28;20179;-93
2023/09/29 02:57:22;;;;;;;14.95;11.93;;;16.30;90.70;;;;;;4999182;28;20162;-91
2023/09/29 02:59:48;;;;;;;14.35;11.55;;;16.40;90.70;;;;;;4999165;28;20167;-94
2023/09/29 03:02:14;;;;;;;19.15;13.15;;;16.40;90.70;;;;;;4984662;28;20163;-94
2023/09/29 03:04:40;;;;;;;16.60;12.10;;;16.40;90.70;;;;;;4998820;28;20185;-93
2023/09/29 03:07:06;;;;;;;17.88;12.27;;;16.50;90.70;;;;;;5001626;28;20242;-93
2023/09/29 03:09:33;;;;;;;19.02;13.15;;;16.40;90.70;;;;;;5003156;28;20158;-93
2023/09/29 03:12:00;;;;;;;14.55;12.00;;;16.50;90.70;;;;;;5003174;28;20186;-93
2023/09/29 03:14:26;;;;;;;19.15;12.10;;;16.50;90.80;;;;;;5003102;28;20201;-93
2023/09/29 03:16:53;;;;;;;16.55;11.70;;;16.50;90.80;;;;;;5003080;28;20155;-94
2023/09/29 03:19:20;;;;;;;14.90;12.63;;;16.50;90.80;;;;;;5003050;28;20166;-93
2023/09/29 03:21:45;;;;;;;17.23;11.60;;;16.50;90.80;;;;;;5003012;28;20163;-93
2023/09/29 03:24:11;;;;;;;22.52;13.32;;;16.50;90.70;;;;;;5002805;28;20193;-94
2023/09/29 03:26:36;;;;;;;20.80;12.30;;;16.60;90.90;;;;;;5002815;28;20162;-93
2023/09/29 03:29:02;;;;;;;18.83;13.43;;;16.50;90.70;;;;;;5002773;28;20159;-93
2023/09/29 03:31:27;;;;;;;18.17;13.20;;;16.50;90.70;;;;;;5002683;28;20194;-93
2023/09/29 03:33:53;;;;;;;15.23;13.27;;;16.60;90.70;;;;;;5002638;28;20191;-93
2023/09/29 03:36:20;;;;;;;15.63;12.95;;;16.60;90.70;;;;;;5002693;28;20159;-93
2023/09/29 03:38:46;;;;;;;16.35;12.75;;;16.60;90.60;;;;;;5002593;28;20163;-94
2023/09/29 03:41:13;;;;;;;16.10;13.68;;;16.60;90.70;;;;;;5002549;28;20186;-94
2023/09/29 03:43:39;;;;;;;19.38;13.18;;;16.60;90.60;;;;;;5002479;28;20175;-94
2023/09/29 03:46:06;;;;;;;20.33;12.90;;;16.60;90.60;;;;;;5002485;28;20162;-94
2023/09/29 03:48:31;;;;;;;26.30;13.40;;;16.60;90.60;;;;;;5002428;28;20167;-94
2023/09/29 03:50:57;;;;;;;16.15;13.13;;;16.60;90.70;;;;;;5002405;28;20187;-94
2023/09/29 03:53:28;;;;;;;21.08;14.93;;;16.60;90.70;;;;;;5002238;28;20171;-94
2023/09/29 03:55:54;;;;;;;16.23;13.23;;;16.60;90.70;;;;;;5002320;28;20174;-94
2023/09/29 03:58:19;;;;;;;19.00;13.90;;;16.60;90.80;;;;;;5002313;28;20163;-94
2023/09/29 04:00:45;;;;;;;16.45;14.43;;;16.50;90.80;;;;;;5002180;28;20163;-94
2023/09/29 04:03:10;;;;;;;18.63;15.00;;;16.60;90.80;;;;;;5002183;28;20239;-93
2023/09/29 04:05:36;;;;;;;19.20;14.23;;;16.60;90.80;;;;;;5001863;28;20213;-92
2023/09/29 04:08:03;;;;;;;15.07;13.00;;;16.70;90.70;;;;;;5002024;28;20167;-94
2023/09/29 04:10:28;;;;;;;18.40;14.50;;;16.70;90.70;;;;;;5001929;28;20179;-94
2023/09/29 04:12:54;;;;;;;17.55;14.20;;;16.60;90.60;;;;;;5001782;28;20258;-94
2023/09/29 04:15:20;;;;;;;17.42;14.90;;;16.70;90.60;;;;;;5001838;28;20189;-92
2023/09/29 04:17:45;;;;;;;29.92;15.05;;;16.60;90.60;;;;;;5000989;28;20182;-93
2023/09/29 04:20:12;;;;;;;20.58;14.98;;;16.50;90.70;;;;;;5001887;28;20151;-94
2023/09/29 04:22:38;;;;;;;17.30;14.90;;;16.50;90.80;;;;;;5001765;28;20183;-92
2023/09/29 04:25:08;;;;;;;22.48;15.85;;;16.50;90.90;;;;;;5001593;28;20231;-92
2023/09/29 04:27:35;;;;;;;18.02;15.85;;;16.50;90.90;;;;;;5001798;28;20162;-93
2023/09/29 04:30:02;;;;;;;22.90;15.90;;;16.60;91.00;;;;;;5001689;28;20251;-93
2023/09/29 04:32:27;;;;;;;19.75;16.55;;;16.50;91.00;;;;;;5001520;28;20218;-93
2023/09/29 04:34:53;;;;;;;21.88;17.85;;;16.50;91.00;;;;;;5001540;28;20198;-93
2023/09/29 04:37:18;;;;;;;21.63;17.23;;;16.50;91.00;;;;;;5001485;28;20238;-93
2023/09/29 04:39:44;;;;;;;18.52;16.67;;;16.50;91.00;;;;;;5001521;28;20171;-92
2023/09/29 04:42:10;;;;;;;19.17;16.95;;;16.50;91.00;;;;;;5001350;28;20202;-94
2023/09/29 04:44:37;;;;;;;22.58;17.85;;;16.50;90.90;;;;;;5001339;28;20176;-93
2023/09/29 04:47:02;;;;;;;27.58;17.55;;;16.60;90.90;;;;;;5001256;28;20163;-95
2023/09/29 04:49:28;;;;;;;25.55;17.92;;;16.60;91.00;;;;;;5001281;28;20230;-94
2023/09/29 04:51:53;;;;;;;23.98;18.63;;;16.60;91.00;;;;;;5001181;28;20201;-94
2023/09/29 04:54:19;;;;;;;25.95;17.98;;;16.60;91.00;;;;;;5001098;28;20187;-93
2023/09/29 04:56:45;;;;;;;21.02;17.45;;;16.60;90.90;;;;;;5001070;28;20171;-94
2023/09/29 04:59:10;;;;;;;21.05;18.50;;;16.50;90.90;;;;;;4995676;28;20187;-91
2023/09/29 05:01:36;;;;;;;19.70;17.65;;;16.60;90.90;;;;;;4986944;28;20541;-91
2023/09/29 05:04:02;;;;;;;22.92;17.88;;;16.60;90.90;;;;;;4986746;28;20195;-91
2023/09/29 05:06:29;;;;;;;23.30;19.23;;;16.60;90.80;;;;;;4988346;28;20194;-91
2023/09/29 05:08:55;;;;;;;24.23;18.83;;;16.60;90.80;;;;;;4988123;28;20181;-90
2023/09/29 05:11:22;;;;;;;24.85;19.08;;;16.60;90.70;;;;;;4984557;28;20226;-91
2023/09/29 05:13:48;;;;;;;21.75;18.60;;;16.60;90.70;;;;;;4982382;28;20606;-90
2023/09/29 05:16:14;;;;;;;22.55;18.27;;;16.60;90.70;;;;;;4977743;28;20175;-90
2023/09/29 05:18:39;;;;;;;24.98;18.15;;;16.70;90.60;;;;;;4977579;28;20178;-90
2023/09/29 05:21:05;;;;;;;21.50;18.38;;;16.70;90.60;;;;;;4976815;28;20174;-90
2023/09/29 05:23:31;;;;;;;21.85;19.10;;;16.70;90.60;;;;;;4975614;28;20309;-90
2023/09/29 05:25:59;;;;;;;27.75;19.17;;;16.70;90.60;;;;;;4974967;28;20179;-90
2023/09/29 05:28:24;;;;;;;23.20;19.92;;;16.70;90.60;;;;;;4976796;28;20531;-90
2023/09/29 05:30:54;;;;;;;22.92;18.88;;;16.70;90.60;;;;;;4975852;28;20179;-90
2023/09/29 05:33:20;;;;;;;25.58;17.60;;;16.70;90.50;;;;;;4987159;28;20167;-91
2023/09/29 05:35:46;;;;;;;20.77;17.58;;;16.70;90.50;;;;;;4989397;28;20194;-91
2023/09/29 05:38:12;;;;;;;21.05;17.85;;;16.70;90.40;;;;;;4986207;28;20535;-90
2023/09/29 05:40:38;;;;;;;23.55;18.17;;;16.70;90.50;;;;;;4986573;28;20206;-91
2023/09/29 05:43:04;;;;;;;22.63;19.25;;;16.60;90.50;;;;;;4985242;28;20175;-90
2023/09/29 05:45:30;;;;;;;21.23;18.70;;;16.70;90.50;;;;;;4974221;28;20203;-88
2023/09/29 05:47:56;;;;;;;20.27;17.27;;;16.70;90.60;;;;;;4974266;28;20182;-90
2023/09/29 05:50:22;;;;;;;20.92;18.63;;;16.70;90.60;;;;;;4974538;28;20262;-89
2023/09/29 05:52:48;;;;;;;22.48;18.33;;;16.70;90.60;;;;;;4975317;28;20240;-91
2023/09/29 05:55:13;;;;;;;21.70;18.40;;;16.70;90.60;;;;;;4974919;28;20198;-91
2023/09/29 05:57:39;;;;;;;24.83;18.83;;;16.70;90.70;;;;;;4974862;28;20174;-90
2023/09/29 06:00:06;;;;;;;20.95;18.02;;;16.70;90.70;;;;;;4980657;28;20179;-92
2023/09/29 06:02:31;;;;;;;19.27;17.33;;;16.70;90.70;;;;;;4977717;28;20587;-92
2023/09/29 06:04:57;;;;;;;22.60;18.00;;;16.80;90.70;;;;;;4989584;28;20242;-90
2023/09/29 06:07:23;;;;;;;21.25;17.70;;;16.80;90.80;;;;;;4975451;28;20723;-89
2023/09/29 06:09:48;;;;;;;25.88;17.17;;;16.80;90.80;;;;;;4978118;28;20257;-93
2023/09/29 06:12:14;;;;;;;21.77;18.02;;;16.80;90.80;;;;;;4974773;28;20222;-91
2023/09/29 06:14:39;;;;;;;23.17;18.38;;;16.80;90.90;;;;;;4981646;28;20199;-89
2023/09/29 06:17:05;;;;;;;23.67;21.33;;;16.80;90.90;;;;;;4974255;28;20179;-89
2023/09/29 06:19:30;;;;;;;26.05;21.65;;;16.80;90.90;;;;;;4975002;28;20171;-90
2023/09/29 06:21:56;;;;;;;23.85;21.35;;;16.80;90.90;;;;;;4977823;28;20183;-91
2023/09/29 06:24:22;;;;;;;19.98;17.70;;;16.80;91.00;;;;;;4977054;28;20203;-90
2023/09/29 06:26:47;;;;;;;22.05;18.33;;;16.80;91.00;;;;;;4979767;28;20182;-91
2023/09/29 06:29:13;;;;;;;25.08;21.42;;;16.90;91.00;;;;;;4982945;28;20228;-92
2023/09/29 06:31:38;;;;;;;22.27;20.08;;;16.90;91.10;;;;;;4978385;28;20287;-90
2023/09/29 06:34:05;;;;;;;22.00;19.73;;;16.90;91.10;;;;;;4976510;28;20218;-91
2023/09/29 06:36:30;;;;;;;21.55;18.48;;;16.90;91.10;;;;;;4977692;28;20252;-90
2023/09/29 06:38:56;;;;;;;21.85;17.63;;;17.00;91.10;;;;;;4973747;28;20634;-90
2023/09/29 06:41:23;;;;;;;22.23;19.88;;;17.00;91.10;;;;;;4974028;28;20183;-90
2023/09/29 06:43:49;;;;;;;25.00;20.45;;;17.00;91.10;;;;;;4974212;28;20209;-90
2023/09/29 06:46:15;;;;;;;19.27;16.60;;;17.00;91.10;;;;;;4974218;28;20184;-90
2023/09/29 06:48:42;;;;;;;18.23;16.42;;;17.10;91.00;;;;;;4975344;28;20569;-90
2023/09/29 06:51:07;;;;;;;19.88;16.98;;;17.10;91.00;;;;;;4976267;28;20182;-91
2023/09/29 06:53:33;;;;;;;24.67;17.45;;;17.10;91.00;;;;;;4975196;28;20182;-90
2023/09/29 06:55:59;;;;;;;23.45;17.60;;;17.20;91.00;;;;;;4975157;28;20691;-90
2023/09/29 06:58:24;;;;;;;19.92;17.25;;;17.20;91.00;;;;;;4974705;28;20198;-88
2023/09/29 07:00:51;;;;;;;29.65;18.15;;;17.20;91.00;;;;;;4976465;28;20184;-90
2023/09/29 07:03:20;;;;;;;30.42;18.05;;;17.20;91.00;;;;;;4975564;28;20174;-91
2023/09/29 07:05:48;;;;;;;21.65;16.63;;;17.20;91.00;;;;;;4977626;28;20254;-91
2023/09/29 07:08:13;;;;;;;23.75;18.30;;;17.30;91.00;;;;;;4976041;28;20189;-91
2023/09/29 07:10:40;;;;;;;19.55;17.63;;;17.30;91.00;;;;;;4975835;28;20182;-91
2023/09/29 07:13:05;;;;;;;19.60;17.00;;;17.30;91.00;;;;;;4977150;28;20202;-90
2023/09/29 07:15:31;;;;;;;23.35;18.13;;;17.30;91.10;;;;;;4976115;28;20580;-90
2023/09/29 07:17:56;;;;;;;23.52;17.65;;;17.40;91.10;;;;;;4975675;28;20174;-90
2023/09/29 07:20:22;;;;;;;22.20;17.88;;;17.40;91.10;;;;;;4976596;28;20194;-90
2023/09/29 07:22:48;;;;;;;20.90;17.58;;;17.50;91.20;;;;;;4976604;28;20187;-91
2023/09/29 07:25:14;;;;;;;21.92;16.92;;;17.50;90.90;;;;;;4974974;28;20245;-90
2023/09/29 07:27:39;;;;;;;23.40;18.58;;;17.40;90.80;;;;;;4975046;28;20263;-90
2023/09/29 07:30:07;;;;;;;20.50;17.38;;;17.40;90.90;;;;;;4975203;28;20206;-90
2023/09/29 07:32:33;;;;;;;19.13;16.85;;;17.30;90.90;;;;;;4976442;28;20598;-91
2023/09/29 07:34:58;;;;;;;20.33;17.25;;;17.40;90.90;;;;;;4975215;28;20250;-91
2023/09/29 07:37:24;;;;;;;22.05;17.58;;;17.40;91.00;;;;;;4975599;28;20530;-91
2023/09/29 07:39:49;;;;;;;19.95;17.23;;;17.40;91.00;;;;;;4975409;28;20174;-91
2023/09/29 07:42:17;;;;;;;21.80;16.95;;;17.40;91.00;;;;;;4976099;28;20214;-90
2023/09/29 07:44:42;;;;;;;23.48;18.48;;;17.40;91.10;;;;;;4975753;28;20289;-91
2023/09/29 07:47:08;;;;;;;19.33;17.17;;;17.30;91.10;;;;;;4977276;28;20594;-90
2023/09/29 07:49:40;;;;;;;22.20;18.02;;;17.40;91.00;;;;;;4975851;28;20206;-91
2023/09/29 07:52:06;;;;;;;18.25;16.35;;;17.40;91.00;;;;;;4975511;28;20199;-90
2023/09/29 07:54:31;;;;;;;22.70;16.95;;;17.40;90.90;;;;;;4978427;28;20195;-91
2023/09/29 07:56:57;;;;;;;18.70;16.45;;;17.40;90.90;;;;;;4980907;28;20587;-90
2023/09/29 07:59:23;;;;;;;19.58;16.90;;;17.50;90.90;;;;;;4978825;28;20201;-90
2023/09/29 08:01:49;;;;;;;19.80;17.08;;;17.50;90.80;;;;;;4978921;28;20179;-91
2023/09/29 08:04:16;;;;;;;18.95;16.65;;;17.50;90.80;;;;;;4978911;28;20202;-91
2023/09/29 08:06:41;;;;;;;21.70;18.75;;;17.50;90.80;;;;;;4979082;28;20281;-91
2023/09/29 08:09:08;;;;;;;22.23;19.80;;;17.50;90.90;;;;;;4978858;28;20225;-91
2023/09/29 08:11:34;;;;;;;18.75;16.45;;;17.50;90.90;;;;;;4979021;28;20603;-91
2023/09/29 08:14:00;;;;;;;25.50;17.33;;;17.50;90.80;;;;;;4981225;28;20198;-91
2023/09/29 08:16:25;;;;;;;27.88;18.88;;;17.50;90.80;;;;;;4985976;28;20240;-92
2023/09/29 08:18:51;;;;;;;22.67;20.08;;;17.60;90.80;;;;;;4992483;28;20170;-92
2023/09/29 08:21:16;;;;;;;22.63;20.40;;;17.60;90.70;;;;;;4986313;28;20186;-92
2023/09/29 08:23:42;;;;;;;18.75;16.45;;;17.60;90.60;;;;;;4988697;28;20186;-92
2023/09/29 08:26:08;;;;;;;18.85;16.25;;;17.70;90.40;;;;;;4989578;28;20605;-91
2023/09/29 08:28:33;;;;;;;21.52;16.65;;;17.70;90.30;;;;;;4986420;28;20233;-93
2023/09/29 08:30:59;;;;;;;18.95;16.05;;;17.80;90.20;;;;;;4985739;28;20175;-92
2023/09/29 08:33:27;;;;;;;17.98;16.15;;;17.80;90.10;;;;;;4981574;28;20214;-92
2023/09/29 08:35:55;;;;;;;19.38;16.42;;;17.80;90.00;;;;;;4984684;28;20171;-92
2023/09/29 08:38:22;;;;;;;25.52;14.98;;;17.90;90.00;;;;;;4983011;28;20178;-93
2023/09/29 08:40:53;;;;;;;20.50;15.30;;;18.00;89.90;;;;;;4980034;28;20182;-92
2023/09/29 08:43:19;;;;;;;22.73;14.23;;;18.10;90.10;;;;;;4980628;28;20175;-92
2023/09/29 08:45:48;;;;;;;24.52;15.45;;;18.20;90.00;;;;;;4979547;28;20206;-92
2023/09/29 08:48:14;;;;;;;23.77;14.63;;;18.10;89.30;;;;;;4979015;28;20213;-93
2023/09/29 08:50:41;;;;;;;16.98;15.07;;;18.10;89.30;;;;;;4979625;28;20182;-94
2023/09/29 08:53:09;;;;;;;23.95;15.25;;;18.20;89.40;;;;;;4979430;28;20249;-92
2023/09/29 08:55:36;;;;;;;17.25;15.57;;;18.20;89.20;;;;;;4980867;28;20553;-93
2023/09/29 08:58:02;;;;;;;21.75;16.05;;;18.10;89.10;;;;;;4980537;28;20171;-92
2023/09/29 09:00:28;;;;;;;19.30;16.30;;;18.10;89.10;;;;;;4980947;28;20229;-93
2023/09/29 09:02:55;;;;;;;20.05;16.13;;;18.20;89.20;;;;;;4979937;28;20245;-92
2023/09/29 09:05:21;;;;;;;18.15;15.13;;;18.20;89.20;;;;;;4978690;28;20265;-93
2023/09/29 09:07:46;;;;;;;18.33;16.08;;;18.20;89.20;;;;;;4979724;28;20181;-91
2023/09/29 09:10:12;;;;;;;17.63;15.82;;;18.20;89.00;;;;;;4980811;28;20182;-92
2023/09/29 09:12:40;;;;;;;18.85;15.85;;;18.20;89.00;;;;;;4980370;28;20202;-93
2023/09/29 09:15:08;;;;;;;21.25;15.88;;;18.20;89.10;;;;;;4980136;28;20205;-91
2023/09/29 09:17:34;;;;;;;17.45;15.52;;;18.30;89.00;;;;;;4978832;28;20175;-92
2023/09/29 09:20:01;;;;;;;19.05;16.73;;;18.30;89.00;;;;;;4978753;28;20203;-91
2023/09/29 09:22:32;;;;;;;19.65;15.50;;;18.20;88.80;;;;;;4978798;28;20178;-92
2023/09/29 09:25:02;;;;;;;19.80;17.90;;;18.20;88.90;;;;;;4978340;28;20202;-92
2023/09/29 09:27:41;;;;;;;20.63;18.50;;;18.30;88.90;;;;;;4979581;28;20273;-92
2023/09/29 09:30:20;;;;;;;24.60;15.18;;;18.30;89.00;;;;;;4981219;28;20233;-91
2023/09/29 09:32:46;;;;;;;16.02;14.32;;;18.30;88.80;;;;;;4982046;28;20183;-92
2023/09/29 09:35:22;;;;;;;16.42;14.68;;;18.50;88.90;;;;;;4982143;28;20206;-92
2023/09/29 09:37:51;;;;;;;18.17;13.70;;;18.60;88.70;;;;;;4982145;28;20179;-92
2023/09/29 09:40:18;;;;;;;15.98;13.52;;;18.70;88.60;;;;;;4987002;28;20269;-92
2023/09/29 09:42:45;;;;;;;17.85;13.85;;;18.70;88.40;;;;;;4981070;28;20670;-93
2023/09/29 09:45:11;;;;;;;16.23;12.77;;;18.70;88.00;;;;;;4981778;28;20301;-92
2023/09/29 09:47:39;;;;;;;17.55;13.02;;;18.70;87.80;;;;;;4980896;28;20202;-92
2023/09/29 09:50:09;;;;;;;18.38;12.68;;;18.80;88.00;;;;;;4978691;28;20178;-92
2023/09/29 09:52:35;;;;;;;23.02;13.70;;;18.90;88.10;;;;;;4976480;28;20199;-92
2023/09/29 09:55:12;;;;;;;14.52;13.10;;;19.00;88.00;;;;;;4979719;28;20210;-91
2023/09/29 09:57:42;;;;;;;18.60;13.27;;;19.00;87.80;;;;;;4981544;28;20229;-92
2023/09/29 10:00:13;;;;;;;14.27;12.52;;;19.10;87.70;;;;;;4981532;28;20209;-91
2023/09/29 10:02:47;;;;;;;13.88;12.57;;;19.30;87.70;;;;;;4977560;28;20193;-92
2023/09/29 10:05:17;;;;;;;12.77;11.30;;;19.50;86.70;;;;;;4975294;28;20217;-92
2023/09/29 10:07:51;;;;;;;15.38;13.65;;;19.70;86.40;;;;;;4974921;28;20185;-92
2023/09/29 10:10:31;;;;;;;15.07;13.40;;;19.70;85.80;;;;;;4976161;28;20531;-92
2023/09/29 10:12:57;;;;;;;15.30;12.63;;;19.60;85.00;;;;;;4983296;28;20210;-93
2023/09/29 10:15:29;;;;;;;13.73;12.40;;;19.70;85.20;;;;;;4977290;28;20194;-93
2023/09/29 10:17:58;;;;;;;13.75;11.93;;;20.00;85.00;;;;;;4979540;28;20190;-94
2023/09/29 10:20:26;;;;;;;14.65;11.82;;;20.00;84.10;;;;;;4982181;28;20217;-94
2023/09/29 10:23:09;;;;;;;12.35;10.95;;;20.00;83.50;;;;;;4979291;28;20251;-92
2023/09/29 10:25:40;;;;;;;13.48;12.05;;;20.10;83.50;;;;;;4978305;28;20205;-91
2023/09/29 10:28:07;;;;;;;12.23;11.05;;;20.20;82.80;;;;;;4974131;28;20166;-90
2023/09/29 10:30:35;;;;;;;11.57;10.55;;;20.10;82.70;;;;;;4980983;28;20175;-93
2023/09/29 10:33:12;;;;;;;11.77;10.68;;;20.10;83.10;;;;;;4975712;28;20211;-92
2023/09/29 10:35:46;;;;;;;11.40;10.40;;;20.10;83.40;;;;;;4974472;28;20272;-92
2023/09/29 10:38:25;;;;;;;13.18;9.80;;;20.10;83.30;;;;;;4974552;28;20174;-92
2023/09/29 10:40:52;;;;;;;16.05;11.48;;;20.00;83.20;;;;;;4974991;28;20715;-92
2023/09/29 10:43:21;;;;;;;10.55;9.65;;;20.00;83.50;;;;;;4974414;28;20665;-92
2023/09/29 10:45:47;;;;;;;10.00;9.18;;;20.00;84.00;;;;;;4974474;28;20199;-92
2023/09/29 10:48:13;;;;;;;11.38;9.48;;;19.90;84.60;;;;;;4974692;28;20531;-92
2023/09/29 10:50:51;;;;;;;10.15;9.20;;;20.00;85.10;;;;;;4975073;28;20198;-93
2023/09/29 10:53:21;;;;;;;15.68;9.40;;;20.00;85.30;;;;;;4975037;28;20229;-92
2023/09/29 10:55:51;;;;;;;10.68;9.20;;;20.10;84.70;;;;;;4974754;28;20201;-92
2023/09/29 10:58:19;;;;;;;11.18;9.23;;;20.20;84.70;;;;;;4975159;28;20571;-93
2023/09/29 11:00:49;;;;;;;11.45;9.02;;;20.50;85.30;;;;;;4974937;28;20706;-93
2023/09/29 11:03:17;;;;;;;10.77;9.88;;;20.50;83.40;;;;;;4975436;28;20175;-92
2023/09/29 11:05:49;;;;;;;10.48;9.48;;;20.50;82.50;;;;;;4974580;28;20301;-92
2023/09/29 11:08:19;;;;;;;10.73;9.00;;;20.70;82.90;;;;;;4974904;28;20181;-92
2023/09/29 11:10:55;;;;;;;11.00;9.38;;;20.80;82.80;;;;;;4974795;28;20203;-92
2023/09/29 11:13:21;;;;;;;16.05;9.65;;;20.90;82.60;;;;;;4975780;28;20190;-92
2023/09/29 11:15:47;;;;;;;11.85;10.73;;;20.90;82.60;;;;;;4974945;28;20195;-92
2023/09/29 11:18:12;;;;;;;23.45;11.10;;;20.80;81.40;;;;;;4974957;28;20174;-93
2023/09/29 11:20:39;;;;;;;11.68;10.60;;;20.90;81.40;;;;;;4977041;28;20178;-91
2023/09/29 11:23:11;;;;;;;10.32;9.27;;;21.00;81.30;;;;;;4981075;28;20253;-90
2023/09/29 11:25:49;;;;;;;12.10;10.13;;;21.20;81.60;;;;;;4984023;28;20666;-90
2023/09/29 11:28:18;;;;;;;11.93;10.35;;;21.40;81.30;;;;;;4985034;28;20676;-91
2023/09/29 11:30:44;;;;;;;12.25;10.10;;;21.40;80.60;;;;;;4987290;28;20238;-90
2023/09/29 11:33:15;;;;;;;10.13;9.32;;;21.40;80.40;;;;;;4986546;28;20194;-90
2023/09/29 11:35:44;;;;;;;13.13;10.10;;;21.60;81.50;;;;;;4986048;28;20678;-91
2023/09/29 11:38:19;;;;;;;14.35;12.93;;;21.50;80.40;;;;;;4985672;28;20232;-91
2023/09/29 11:40:48;;;;;;;10.93;9.70;;;21.70;80.50;;;;;;4986465;28;20189;-91
2023/09/29 11:43:14;;;;;;;12.95;10.55;;;21.80;79.70;;;;;;4987908;28;20170;-91
2023/09/29 11:45:40;;;;;;;11.15;10.15;;;21.70;79.20;;;;;;4984945;28;20694;-91
2023/09/29 11:48:06;;;;;;;16.63;15.43;;;21.70;79.50;;;;;;4986259;28;20206;-91
2023/09/29 11:50:33;;;;;;;17.35;16.05;;;21.80;79.70;;;;;;4984694;28;20185;-90
2023/09/29 11:53:03;;;;;;;19.88;17.85;;;21.80;79.60;;;;;;4984715;28;20190;-91
2023/09/29 11:55:29;;;;;;;11.43;10.43;;;21.80;79.40;;;;;;4983744;28;20195;-90
2023/09/29 11:57:55;;;;;;;10.57;9.68;;;21.80;78.30;;;;;;4982286;28;20186;-91
2023/09/29 12:00:20;;;;;;;17.42;16.13;;;21.90;79.50;;;;;;4983231;28;20183;-91
2023/09/29 12:02:46;;;;;;;20.17;18.02;;;21.90;78.50;;;;;;4981965;28;20221;-90
2023/09/29 12:05:11;;;;;;;12.23;10.98;;;22.10;76.70;;;;;;4982794;28;20700;-90
2023/09/29 12:07:37;;;;;;;11.15;10.27;;;22.20;77.40;;;;;;4983138;28;20643;-90
2023/09/29 12:10:04;;;;;;;11.10;10.10;;;22.20;77.30;;;;;;4983612;28;20298;-90
2023/09/29 12:12:32;;;;;;;11.82;10.82;;;22.10;78.00;;;;;;4982926;28;20768;-91
2023/09/29 12:14:58;;;;;;;11.38;10.48;;;22.00;76.90;;;;;;4983652;28;20194;-90
2023/09/29 12:17:23;;;;;;;10.82;10.02;;;22.10;78.30;;;;;;4984490;28;20210;-89
2023/09/29 12:19:49;;;;;;;12.00;10.00;;;22.10;78.30;;;;;;4983858;28;20174;-91
2023/09/29 12:22:15;;;;;;;11.50;10.50;;;22.40;78.50;;;;;;4982299;28;20189;-91
2023/09/29 12:24:40;;;;;;;11.40;10.32;;;22.30;77.50;;;;;;4982877;28;20225;-90
2023/09/29 12:27:08;;;;;;;11.90;10.82;;;22.20;78.10;;;;;;4984265;28;20197;-90
2023/09/29 12:29:34;;;;;;;11.70;10.65;;;22.20;77.30;;;;;;4986626;28;20181;-90
2023/09/29 12:32:00;;;;;;;11.00;9.43;;;22.20;77.40;;;;;;4984919;28;20269;-90
2023/09/29 12:34:28;;;;;;;9.85;9.15;;;22.10;78.80;;;;;;4984887;28;20610;-90
2023/09/29 12:36:55;;;;;;;11.35;10.23;;;22.00;79.10;;;;;;4986940;28;20239;-91
2023/09/29 12:39:20;;;;;;;10.45;9.45;;;22.10;79.00;;;;;;4987118;28;20167;-90
2023/09/29 12:41:47;;;;;;;10.20;9.32;;;22.00;78.60;;;;;;4987553;28;20229;-90
2023/09/29 12:44:13;;;;;;;10.57;9.68;;;22.00;79.00;;;;;;4985036;28;20202;-91
2023/09/29 12:46:38;;;;;;;10.63;9.82;;;22.10;78.60;;;;;;4985822;28;20194;-91
2023/09/29 12:49:04;;;;;;;10.13;9.13;;;22.30;78.20;;;;;;4985826;28;20549;-92
2023/09/29 12:51:30;;;;;;;17.13;15.63;;;22.60;78.10;;;;;;4985742;28;20183;-91
2023/09/29 12:53:56;;;;;;;17.02;15.65;;;22.50;77.10;;;;;;4985603;28;20202;-90
2023/09/29 12:56:23;;;;;;;14.55;13.55;;;22.50;78.30;;;;;;4986225;28;20167;-90
2023/09/29 12:58:48;;;;;;;12.57;11.48;;;22.70;78.20;;;;;;4988038;28;20167;-92
2023/09/29 13:01:14;;;;;;;11.73;10.82;;;22.70;76.40;;;;;;4989214;28;20202;-92
2023/09/29 13:03:39;;;;;;;11.82;10.75;;;22.70;77.00;;;;;;4986763;28;20174;-91
2023/09/29 13:06:05;;;;;;;11.73;10.73;;;22.80;77.00;;;;;;4986745;28;20197;-92
2023/09/29 13:08:33;;;;;;;11.20;10.30;;;22.80;76.40;;;;;;4989068;28;20175;-92
2023/09/29 13:10:59;;;;;;;10.38;9.63;;;22.70;76.90;;;;;;4991434;28;20560;-91
2023/09/29 13:13:25;;;;;;;11.20;10.20;;;22.70;77.30;;;;;;4991862;28;20622;-90
2023/09/29 13:15:51;;;;;;;11.32;10.30;;;22.70;77.30;;;;;;4992445;28;20223;-91
2023/09/29 13:18:18;;;;;;;10.30;9.48;;;22.50;76.40;;;;;;4993441;28;20171;-90
2023/09/29 13:20:45;;;;;;;10.35;9.45;;;22.40;77.70;;;;;;4988480;28;20174;-91
2023/09/29 13:23:11;;;;;;;10.55;9.43;;;22.30;78.10;;;;;;4990177;28;20182;-90
2023/09/29 13:25:37;;;;;;;10.15;9.38;;;22.30;78.40;;;;;;4990210;28;20582;-92
2023/09/29 13:28:04;;;;;;;10.30;9.27;;;22.20;78.80;;;;;;4991008;28;20178;-90
2023/09/29 13:30:29;;;;;;;9.13;8.32;;;22.10;78.60;;;;;;4990859;28;20178;-91